createdAt,value
2022-11-05T00:03:22.480Z,12.55
2022-11-05T00:08:40.919Z,13.85
2022-11-05T00:14:00.411Z,15.18
2022-11-05T00:19:07.507Z,14.43
2022-11-05T00:24:28.668Z,14.40
2022-11-05T00:29:30.854Z,15.50
2022-11-05T00:34:31.666Z,14.98
2022-11-05T00:39:32.472Z,16.90
2022-11-05T00:44:52.289Z,16.60
2022-11-05T00:49:53.036Z,16.55
2022-11-05T00:54:53.841Z,17.60
2022-11-05T00:59:55.998Z,16.77
2022-11-05T01:04:56.806Z,17.50
2022-11-05T01:09:57.575Z,18.48
2022-11-05T01:14:59.900Z,17.30
2022-11-05T01:20:00.699Z,18.95
2022-11-05T01:25:01.708Z,18.85
2022-11-05T01:30:04.937Z,20.25
2022-11-05T01:35:06.900Z,20.13
2022-11-05T01:40:10.240Z,19.73
2022-11-05T01:45:17.927Z,19.27
2022-11-05T01:50:29.954Z,17.95
2022-11-05T01:55:35.026Z,18.20
2022-11-05T02:00:37.707Z,16.80
2022-11-05T02:05:41.418Z,14.60
2022-11-05T02:10:44.696Z,11.98
2022-11-05T02:15:56.849Z,12.07
2022-11-05T02:21:11.661Z,12.98
2022-11-05T02:26:44.597Z,13.57
2022-11-05T02:31:55.403Z,14.10
2022-11-05T02:37:06.573Z,15.32
2022-11-05T02:42:16.301Z,14.93
2022-11-05T02:47:26.920Z,14.65
2022-11-05T02:52:35.325Z,15.45
2022-11-05T02:57:37.359Z,15.75
2022-11-05T03:02:39.758Z,16.27
2022-11-05T03:07:50.410Z,14.93
2022-11-05T03:13:02.808Z,15.73
2022-11-05T03:18:13.032Z,15.68
2022-11-05T03:23:26.612Z,15.73
2022-11-05T03:28:32.427Z,15.23
2022-11-05T03:33:37.406Z,15.90
2022-11-05T03:38:42.359Z,14.07
2022-11-05T03:43:47.905Z,14.65
2022-11-05T03:48:55.367Z,16.00
2022-11-05T03:53:58.767Z,15.70
2022-11-05T03:59:01.565Z,17.92
2022-11-05T04:04:04.250Z,19.80
2022-11-05T04:09:22.535Z,19.83
2022-11-05T04:14:23.390Z,19.50
2022-11-05T04:19:39.483Z,21.38
2022-11-05T04:24:40.336Z,21.55
2022-11-05T04:29:59.526Z,19.85
2022-11-05T04:35:01.696Z,21.98
2022-11-05T04:40:02.552Z,21.55
2022-11-05T04:45:03.474Z,20.40
2022-11-05T04:50:06.084Z,21.05
2022-11-05T04:55:07.513Z,20.88
2022-11-05T05:00:10.951Z,20.10
2022-11-05T05:05:13.733Z,20.25
2022-11-05T05:10:14.587Z,20.42
2022-11-05T05:15:15.429Z,19.40
2022-11-05T05:20:35.444Z,21.02
2022-11-05T05:25:36.208Z,20.60
2022-11-05T05:30:37.166Z,19.30
2022-11-05T05:35:40.601Z,19.73
2022-11-05T05:40:41.579Z,20.13
2022-11-05T05:45:42.354Z,18.77
2022-11-05T05:50:44.488Z,18.73
2022-11-05T05:55:45.268Z,19.02
2022-11-05T06:00:46.059Z,20.75
2022-11-05T06:05:48.988Z,20.85
2022-11-05T06:10:52.272Z,19.92
2022-11-05T06:15:53.553Z,19.15
2022-11-05T06:20:55.953Z,19.48
2022-11-05T06:26:00.855Z,20.92
2022-11-05T06:31:02.075Z,18.35
2022-11-05T06:36:05.708Z,18.45
2022-11-05T06:41:10.337Z,17.88
2022-11-05T06:46:12.477Z,17.60
2022-11-05T06:51:14.590Z,18.17
2022-11-05T06:56:15.383Z,17.83
2022-11-05T07:01:16.505Z,18.48
2022-11-05T07:06:18.829Z,17.52
2022-11-05T07:11:19.655Z,16.75
2022-11-05T07:16:20.445Z,16.67
2022-11-05T07:21:22.607Z,15.15
2022-11-05T07:26:23.411Z,15.20
2022-11-05T07:31:24.275Z,16.38
2022-11-05T07:36:26.729Z,13.95
2022-11-05T07:41:28.451Z,14.20
2022-11-05T07:46:29.310Z,13.52
2022-11-05T07:51:31.474Z,14.00
2022-11-05T07:56:34.283Z,12.85
2022-11-05T08:01:35.412Z,12.10
2022-11-05T08:06:41.933Z,13.60
2022-11-05T08:11:42.793Z,13.82
2022-11-05T08:16:43.644Z,13.35
2022-11-05T08:21:45.814Z,10.50
2022-11-05T08:26:47.747Z,11.57
2022-11-05T08:31:48.634Z,10.85
2022-11-05T08:36:50.789Z,9.93
2022-11-05T08:41:51.582Z,9.57
2022-11-05T08:46:52.755Z,14.00
2022-11-05T08:51:55.134Z,10.60
2022-11-05T08:56:55.953Z,10.75
2022-11-05T09:01:56.836Z,10.13
2022-11-05T09:06:59.060Z,10.98
2022-11-05T09:12:12.199Z,10.65
2022-11-05T09:17:18.049Z,10.25
2022-11-05T09:22:20.334Z,9.77
2022-11-05T09:27:21.394Z,9.70
2022-11-05T09:32:23.293Z,10.35
2022-11-05T09:37:25.651Z,10.00
2022-11-05T09:42:32.649Z,8.45
2022-11-05T09:47:37.635Z,7.30
2022-11-05T09:52:39.853Z,8.02
2022-11-05T09:57:46.885Z,7.75
2022-11-05T10:02:51.830Z,7.43
2022-11-05T10:07:59.396Z,7.47
2022-11-05T10:13:06.180Z,7.35
2022-11-05T10:18:15.759Z,6.50
2022-11-05T10:23:20.791Z,5.00
2022-11-05T10:28:24.829Z,6.75
2022-11-05T10:33:33.202Z,7.72
2022-11-05T10:38:35.408Z,5.30
2022-11-05T10:43:41.496Z,5.07
2022-11-05T10:48:54.078Z,5.05
2022-11-05T10:54:02.087Z,5.75
2022-11-05T10:59:12.082Z,4.30
2022-11-05T11:04:18.206Z,3.70
2022-11-05T11:09:23.787Z,3.45
2022-11-05T11:14:24.582Z,3.92
2022-11-05T11:19:28.725Z,4.25
2022-11-05T11:24:33.573Z,3.22
2022-11-05T11:29:40.505Z,4.00
2022-11-05T11:34:46.804Z,3.72
2022-11-05T11:39:52.540Z,2.83
2022-11-05T11:44:53.608Z,3.22
2022-11-05T11:49:57.139Z,2.78
2022-11-05T11:55:29.446Z,2.20
2022-11-05T12:00:32.590Z,2.70
2022-11-05T12:05:44.727Z,2.80
2022-11-05T12:10:59.174Z,2.47
2022-11-05T12:16:08.543Z,2.72
2022-11-05T12:21:34.562Z,2.10
2022-11-05T12:26:54.521Z,2.45
2022-11-05T12:32:05.676Z,2.20
2022-11-05T12:37:20.759Z,2.20
2022-11-05T12:42:42.217Z,1.63
2022-11-05T12:47:57.092Z,2.35
2022-11-05T12:53:28.121Z,1.90
2022-11-05T12:58:34.347Z,2.22
2022-11-05T13:03:43.401Z,2.10
2022-11-05T13:08:47.925Z,1.92
2022-11-05T13:14:00.603Z,2.22
2022-11-05T13:19:08.192Z,2.13
2022-11-05T13:24:16.237Z,1.95
2022-11-05T13:29:23.503Z,2.83
2022-11-05T13:34:24.427Z,1.98
2022-11-05T13:39:28.826Z,1.80
2022-11-05T13:44:59.528Z,2.70
2022-11-05T13:50:29.877Z,1.67
2022-11-05T13:55:57.088Z,2.08
2022-11-05T14:01:10.234Z,2.03
2022-11-05T14:06:11.776Z,2.10
2022-11-05T14:11:22.880Z,2.00
2022-11-05T14:16:27.002Z,2.75
2022-11-05T14:21:34.211Z,1.70
2022-11-05T14:26:35.024Z,2.05
2022-11-05T14:32:08.666Z,2.05
2022-11-05T14:37:37.068Z,2.17
2022-11-05T14:42:38.485Z,2.20
2022-11-05T14:47:45.265Z,1.80
2022-11-05T14:52:53.635Z,1.73
2022-11-05T14:58:23.248Z,1.85
2022-11-05T15:04:17.126Z,2.20
2022-11-05T15:09:28.252Z,2.63
2022-11-05T15:14:33.334Z,1.67
2022-11-05T15:19:38.045Z,2.10
2022-11-05T15:24:42.674Z,1.58
2022-11-05T15:29:44.022Z,2.03
2022-11-05T15:34:53.933Z,3.03
2022-11-05T15:39:56.431Z,1.98
2022-11-05T15:44:58.615Z,1.88
2022-11-05T15:50:03.768Z,2.22
2022-11-05T15:55:11.102Z,2.53
2022-11-05T16:00:18.468Z,1.90
2022-11-05T16:05:21.570Z,2.47
2022-11-05T16:10:26.594Z,2.42
2022-11-05T16:15:32.218Z,2.90
2022-11-05T16:20:37.000Z,4.03
2022-11-05T16:25:40.013Z,2.47
2022-11-05T16:30:40.827Z,2.72
2022-11-05T16:35:49.177Z,2.85
2022-11-05T16:40:50.006Z,3.67
2022-11-05T16:45:53.920Z,3.90
2022-11-05T16:50:56.147Z,4.38
2022-11-05T16:55:57.193Z,6.22
2022-11-05T17:01:02.855Z,5.10
2022-11-05T17:06:05.381Z,5.80
2022-11-05T17:11:06.904Z,6.60
2022-11-05T17:16:10.583Z,7.25
2022-11-05T17:21:14.125Z,7.72
2022-11-05T17:26:15.210Z,6.97
2022-11-05T17:31:17.345Z,8.73
2022-11-05T17:36:19.519Z,16.70
2022-11-05T17:41:22.231Z,13.05
2022-11-05T17:46:23.554Z,12.35
2022-11-05T17:51:25.726Z,11.82
2022-11-05T17:56:33.840Z,11.65
2022-11-05T18:01:42.798Z,11.98
2022-11-05T18:06:45.630Z,10.20
2022-11-05T18:11:46.882Z,10.30
2022-11-05T18:16:47.699Z,10.60
2022-11-05T18:21:49.835Z,9.52
2022-11-05T18:26:51.172Z,8.70
2022-11-05T18:31:52.033Z,9.27
2022-11-05T18:36:56.529Z,8.00
2022-11-05T18:41:57.592Z,7.30
2022-11-05T18:46:59.034Z,8.50
2022-11-05T18:52:01.271Z,7.25
2022-11-05T18:57:02.317Z,9.15
2022-11-05T19:02:03.608Z,10.48
2022-11-05T19:07:06.547Z,11.20
2022-11-05T19:12:08.500Z,12.10
2022-11-05T19:17:09.360Z,11.73
2022-11-05T19:22:11.746Z,12.30
2022-11-05T19:27:12.647Z,14.80
2022-11-05T19:32:13.475Z,13.95
2022-11-05T19:37:16.799Z,13.75
2022-11-05T19:42:17.599Z,14.80
2022-11-05T19:47:18.402Z,15.93
2022-11-05T19:52:20.608Z,16.60
2022-11-05T19:57:21.526Z,15.80
2022-11-05T20:02:22.500Z,17.98
2022-11-05T20:07:24.946Z,19.13
2022-11-05T20:12:25.893Z,18.02
2022-11-05T20:17:26.989Z,19.08
2022-11-05T20:22:29.257Z,15.00
2022-11-05T20:27:30.543Z,14.57
2022-11-05T20:32:32.132Z,14.35
2022-11-05T20:37:34.670Z,14.00
2022-11-05T20:42:37.273Z,11.90
2022-11-05T20:47:38.578Z,12.00
2022-11-05T20:52:41.210Z,10.88
2022-11-05T20:57:42.524Z,11.40
2022-11-05T21:02:43.572Z,12.20
2022-11-05T21:07:45.946Z,11.32
2022-11-05T21:12:47.248Z,10.68
2022-11-05T21:17:48.125Z,11.27
2022-11-05T21:22:50.598Z,10.68
2022-11-05T21:27:51.425Z,10.52
2022-11-05T21:32:53.351Z,11.10
2022-11-05T21:37:55.581Z,9.70
2022-11-05T21:42:56.393Z,9.35
2022-11-05T21:47:57.449Z,9.23
2022-11-05T21:53:17.238Z,8.85
2022-11-05T21:58:36.079Z,9.02
2022-11-05T22:03:37.088Z,9.00
2022-11-05T22:08:39.765Z,9.40
2022-11-05T22:13:40.552Z,8.50
2022-11-05T22:18:41.363Z,9.85
2022-11-05T22:23:43.539Z,9.10
2022-11-05T22:28:44.408Z,9.23
2022-11-05T22:33:45.378Z,8.60
2022-11-05T22:38:47.575Z,9.10
2022-11-05T22:43:48.890Z,8.93
2022-11-05T22:48:49.889Z,8.30
2022-11-05T22:53:52.281Z,8.27
2022-11-05T22:58:53.577Z,7.93
2022-11-05T23:03:57.337Z,7.80
2022-11-05T23:09:18.014Z,7.97
2022-11-05T23:14:18.797Z,7.25
2022-11-05T23:19:37.565Z,7.00
2022-11-05T23:24:40.048Z,6.53
2022-11-05T23:29:41.777Z,6.13
2022-11-05T23:34:42.606Z,6.47
2022-11-05T23:39:44.730Z,7.00
2022-11-05T23:45:03.013Z,6.88
2022-11-05T23:50:04.031Z,7.07
2022-11-05T23:55:06.768Z,7.32
